Time;durP1;ratioP1;P1;durP2;ratioP2;P2;SDS_P1;SDS_P2;PMS_P1;PMS_P2;Temp;Humidity;BMP_temperature;BMP_pressure;BME280_temperature;BME280_humidity;BME280_pressure;Samples;Min_cycle;Max_cycle;Signal;HPM_P1;HPM_P2
2023/06/08 00:00:50;;;;;;;;;;;11.80;99.90;;;;;;6099291;23;20326;-74
2023/06/08 00:03:18;;;;;;;;;;;11.80;99.90;;;;;;6123570;23;19916;-74
2023/06/08 00:05:48;;;;;;;;;;;11.70;99.90;;;;;;6125647;23;19940;-74
2023/06/08 00:08:14;;;;;;;;;;;11.60;99.90;;;;;;6100119;23;20354;-73
2023/06/08 00:10:43;;;;;;;;;;;11.60;99.90;;;;;;6126620;23;19964;-74
2023/06/08 00:13:09;;;;;;;;;;;11.60;99.90;;;;;;6124712;23;20246;-74
2023/06/08 00:15:34;;;;;;;;;;;11.60;99.90;;;;;;6126436;23;19920;-73
2023/06/08 00:18:00;;;;;;;;;;;11.60;99.90;;;;;;6125289;23;19921;-73
2023/06/08 00:20:26;;;;;;;;;;;11.50;99.90;;;;;;6099512;23;19921;-73
2023/06/08 00:22:52;;;;;;;;;;;11.60;99.90;;;;;;6126034;23;20301;-73
2023/06/08 00:25:17;;;;;;;;;;;11.60;99.90;;;;;;6100929;23;19921;-74
2023/06/08 00:27:43;;;;;;;;;;;11.60;99.90;;;;;;6100472;23;19947;-74
2023/06/08 00:30:09;;;;;;;;;;;11.60;99.90;;;;;;6126970;23;19928;-74
2023/06/08 00:32:34;;;;;;;;;;;11.60;99.90;;;;;;6126494;23;19925;-74
2023/06/08 00:35:00;;;;;;;;;;;11.60;99.90;;;;;;6098872;23;19924;-74
2023/06/08 00:37:25;;;;;;;;;;;11.60;99.90;;;;;;6126057;23;20245;-73
2023/06/08 00:39:51;;;;;;;;;;;11.60;99.90;;;;;;6099317;23;20341;-74
2023/06/08 00:42:16;;;;;;;;;;;11.50;99.90;;;;;;6098752;23;19921;-74
2023/06/08 00:44:43;;;;;;;;;;;11.60;99.90;;;;;;6099625;23;19925;-73
2023/06/08 00:47:09;;;;;;;;;;;11.60;99.90;;;;;;6099392;23;19921;-74
2023/06/08 00:49:35;;;;;;;;;;;11.60;99.90;;;;;;6124878;23;20310;-74
2023/06/08 00:52:01;;;;;;;;;;;11.60;99.90;;;;;;6099283;23;19921;-74
2023/06/08 00:54:30;;;;;;;;;;;11.60;99.90;;;;;;6100970;23;20326;-75
2023/06/08 00:57:00;;;;;;;;;;;11.50;99.90;;;;;;6126569;23;19923;-74
2023/06/08 00:59:29;;;;;;;;;;;11.50;99.90;;;;;;6127738;23;19925;-74
2023/06/08 01:01:57;;;;;;;;;;;11.60;99.90;;;;;;6100924;23;19952;-74
2023/06/08 01:04:26;;;;;;;;;;;11.90;99.90;;;;;;6127159;23;19921;-74
2023/06/08 01:07:14;;;;;;;;;;;11.50;99.90;;;;;;6100998;23;19925;-74
2023/06/08 01:09:39;;;;;;;;;;;11.50;99.90;;;;;;6100596;23;19921;-74
2023/06/08 01:12:10;;;;;;;;;;;11.60;99.90;;;;;;6100789;23;19921;-74
2023/06/08 01:14:50;;;;;;;;;;;11.50;99.90;;;;;;6101442;23;20338;-73
2023/06/08 01:17:18;;;;;;;;;;;11.60;99.90;;;;;;6126789;23;19970;-74
2023/06/08 01:20:04;;;;;;;;;;;11.60;99.90;;;;;;6101544;23;19969;-74
2023/06/08 01:22:44;;;;;;;;;;;11.60;99.90;;;;;;6101146;23;19921;-74
2023/06/08 01:25:10;;;;;;;;;;;11.60;99.90;;;;;;6126827;23;19928;-73
2023/06/08 01:27:37;;;;;;;;;;;11.70;99.90;;;;;;6127679;23;19921;-75
2023/06/08 01:30:06;;;;;;;;;;;11.70;99.90;;;;;;6127509;23;19995;-75
2023/06/08 01:32:32;;;;;;;;;;;11.70;99.90;;;;;;6127175;23;19976;-75
2023/06/08 01:34:58;;;;;;;;;;;11.70;99.90;;;;;;6127342;23;19921;-76
2023/06/08 01:37:32;;;;;;;;;;;11.80;99.90;;;;;;6126423;23;19996;-76
2023/06/08 01:40:08;;;;;;;;;;;11.70;99.90;;;;;;6101232;23;20235;-75
2023/06/08 01:42:36;;;;;;;;;;;11.70;99.90;;;;;;6127501;23;20342;-75
2023/06/08 01:45:08;;;;;;;;;;;11.70;99.90;;;;;;6100438;23;19944;-75
2023/06/08 01:47:45;;;;;;;;;;;11.70;99.90;;;;;;6127322;23;19925;-76
2023/06/08 01:50:11;;;;;;;;;;;11.70;99.90;;;;;;6100896;23;19984;-75
2023/06/08 01:52:38;;;;;;;;;;;11.70;99.90;;;;;;6100220;23;20338;-76
2023/06/08 01:55:04;;;;;;;;;;;11.60;99.90;;;;;;6100829;23;19999;-76
2023/06/08 01:57:29;;;;;;;;;;;11.60;99.90;;;;;;6100830;23;19945;-76
2023/06/08 01:59:55;;;;;;;;;;;11.50;99.90;;;;;;6125327;23;19962;-75
2023/06/08 02:02:20;;;;;;;;;;;11.60;99.90;;;;;;6100275;23;19928;-75
2023/06/08 02:04:46;;;;;;;;;;;11.60;99.90;;;;;;6100854;23;20227;-75
2023/06/08 02:07:11;;;;;;;;;;;11.60;99.90;;;;;;6125178;23;19921;-76
2023/06/08 02:09:37;;;;;;;;;;;11.60;99.90;;;;;;6100685;23;19924;-76
2023/06/08 02:12:06;;;;;;;;;;;11.60;99.90;;;;;;6100038;23;19916;-76
2023/06/08 02:14:32;;;;;;;;;;;11.50;99.90;;;;;;6099912;23;19975;-76
2023/06/08 02:17:00;;;;;;;;;;;11.60;99.90;;;;;;6127072;23;19921;-76
2023/06/08 02:19:30;;;;;;;;;;;11.60;99.90;;;;;;6099707;23;19924;-75
2023/06/08 02:21:57;;;;;;;;;;;11.60;99.90;;;;;;6126247;23;19988;-75
2023/06/08 02:24:22;;;;;;;;;;;11.60;99.90;;;;;;6126654;23;20330;-76
2023/06/08 02:26:52;;;;;;;;;;;11.70;99.90;;;;;;6099707;23;19972;-76
2023/06/08 02:29:17;;;;;;;;;;;11.80;99.90;;;;;;6125664;23;19921;-76
2023/06/08 02:31:43;;;;;;;;;;;11.70;99.90;;;;;;6100524;23;19928;-75
2023/06/08 02:34:09;;;;;;;;;;;11.70;99.90;;;;;;6099055;23;19928;-75
2023/06/08 02:36:36;;;;;;;;;;;11.70;99.90;;;;;;6126662;23;19924;-76
2023/06/08 02:39:02;;;;;;;;;;;11.70;99.90;;;;;;6125886;23;19999;-76
2023/06/08 02:41:30;;;;;;;;;;;11.70;99.90;;;;;;6125546;23;20004;-77
2023/06/08 02:43:56;;;;;;;;;;;12.90;99.90;;;;;;6099223;23;20329;-73
2023/06/08 02:46:21;;;;;;;;;;;11.70;99.90;;;;;;6126402;23;19968;-74
2023/06/08 02:48:47;;;;;;;;;;;11.80;99.90;;;;;;6098811;23;19921;-73
2023/06/08 02:51:12;;;;;;;;;;;12.10;99.90;;;;;;6126718;23;19979;-73
2023/06/08 02:53:38;;;;;;;;;;;11.80;99.90;;;;;;6125644;23;20385;-74
2023/06/08 02:56:06;;;;;;;;;;;11.80;99.90;;;;;;6124969;23;19960;-74
2023/06/08 02:58:33;;;;;;;;;;;11.80;99.90;;;;;;6100139;23;19921;-74
2023/06/08 03:01:00;;;;;;;;;;;11.80;99.90;;;;;;6099971;23;19948;-74
2023/06/08 03:03:29;;;;;;;;;;;11.80;99.90;;;;;;6098952;23;19924;-74
2023/06/08 03:05:58;;;;;;;;;;;11.80;99.90;;;;;;6126082;23;19925;-73
2023/06/08 03:08:27;;;;;;;;;;;11.90;99.90;;;;;;6100079;23;19943;-73
2023/06/08 03:10:53;;;;;;;;;;;11.90;99.90;;;;;;6098869;23;19916;-75
2023/06/08 03:13:18;;;;;;;;;;;12.30;99.90;;;;;;6100250;23;20381;-74
2023/06/08 03:15:45;;;;;;;;;;;11.90;99.90;;;;;;6099172;23;19928;-73
2023/06/08 03:18:10;;;;;;;;;;;11.90;99.90;;;;;;6125888;23;19952;-75
2023/06/08 03:20:36;;;;;;;;;;;11.90;99.90;;;;;;6125568;23;19980;-74
2023/06/08 03:23:02;;;;;;;;;;;12.00;99.90;;;;;;6123732;23;19925;-74
2023/06/08 03:25:28;;;;;;;;;;;11.90;99.90;;;;;;6099026;23;19928;-72
2023/06/08 03:28:06;;;;;;;;;;;11.90;99.90;;;;;;6125415;23;19921;-72
2023/06/08 03:30:31;;;;;;;;;;;11.80;99.90;;;;;;6098549;23;19921;-70
2023/06/08 03:33:05;;;;;;;;;;;11.90;99.90;;;;;;6099214;23;19921;-71
2023/06/08 03:35:31;;;;;;;;;;;11.80;99.90;;;;;;6099505;23;19928;-71
2023/06/08 03:37:56;;;;;;;;;;;11.80;99.90;;;;;;6124831;23;19996;-71
2023/06/08 03:40:22;;;;;;;;;;;11.80;99.90;;;;;;6125758;23;19921;-70
2023/06/08 03:42:50;;;;;;;;;;;11.80;99.90;;;;;;6125727;23;19928;-71
2023/06/08 03:45:19;;;;;;;;;;;11.80;99.90;;;;;;6098880;23;19921;-71
2023/06/08 03:47:45;;;;;;;;;;;11.80;99.90;;;;;;6100081;23;19979;-71
2023/06/08 03:50:11;;;;;;;;;;;11.90;99.90;;;;;;6125501;23;19925;-71
2023/06/08 03:52:38;;;;;;;;;;;11.90;99.90;;;;;;6124713;23;19921;-71
2023/06/08 03:55:05;;;;;;;;;;;11.90;99.90;;;;;;6099361;23;19992;-73
2023/06/08 03:57:30;;;;;;;;;;;11.90;99.90;;;;;;6125752;23;20338;-73
2023/06/08 03:59:56;;;;;;;;;;;11.90;99.90;;;;;;6098620;23;19927;-72
2023/06/08 04:02:21;;;;;;;;;;;11.90;99.90;;;;;;6099507;23;20000;-73
2023/06/08 04:04:47;;;;;;;;;;;12.00;99.90;;;;;;6126222;23;19921;-72
2023/06/08 04:07:13;;;;;;;;;;;11.00;99.90;;;;;;6125325;23;19921;-72
2023/06/08 04:09:38;;;;;;;;;;;12.00;99.90;;;;;;6099955;23;19925;-72
2023/06/08 04:12:07;;;;;;;;;;;12.00;99.90;;;;;;6098706;23;19925;-71
2023/06/08 04:14:32;;;;;;;;;;;12.00;99.90;;;;;;6128415;23;19921;-70
2023/06/08 04:16:58;;;;;;;;;;;12.00;99.90;;;;;;6107647;23;19928;-71
2023/06/08 04:19:23;;;;;;;;;;;11.90;99.90;;;;;;6131884;23;19948;-70
2023/06/08 04:21:49;;;;;;;;;;;11.90;99.90;;;;;;6100314;23;19931;-70
2023/06/08 04:24:17;;;;;;;;;;;11.90;99.90;;;;;;6100064;23;19925;-70
2023/06/08 04:26:42;;;;;;;;;;;11.90;99.90;;;;;;6125160;23;19995;-70
2023/06/08 04:29:08;;;;;;;;;;;11.90;99.90;;;;;;6099862;23;19948;-71
2023/06/08 04:31:35;;;;;;;;;;;11.90;99.90;;;;;;6128114;23;19921;-75
2023/06/08 04:34:03;;;;;;;;;;;11.90;99.90;;;;;;6100705;23;19920;-76
2023/06/08 04:36:28;;;;;;;;;;;11.90;99.90;;;;;;6102872;23;19992;-83
2023/06/08 04:38:56;;;;;;;;;;;12.00;99.90;;;;;;6126667;23;19925;-79
2023/06/08 04:41:25;;;;;;;;;;;12.00;99.90;;;;;;6126400;23;19921;-77
2023/06/08 04:43:52;;;;;;;;;;;12.10;99.90;;;;;;6100861;23;19921;-79
2023/06/08 04:46:17;;;;;;;;;;;12.10;99.90;;;;;;6101952;23;19928;-78
2023/06/08 04:48:45;;;;;;;;;;;12.10;99.90;;;;;;6126312;23;20298;-80
2023/06/08 04:51:11;;;;;;;;;;;12.20;99.90;;;;;;6098872;23;19921;-75
2023/06/08 04:53:37;;;;;;;;;;;12.20;99.90;;;;;;6099693;23;19920;-77
2023/06/08 04:56:04;;;;;;;;;;;12.30;99.90;;;;;;6124784;23;20235;-75
2023/06/08 04:58:30;;;;;;;;;;;12.30;99.90;;;;;;6101946;23;19928;-73
2023/06/08 05:00:56;;;;;;;;;;;12.40;99.90;;;;;;6140151;23;19921;-83
2023/06/08 05:03:23;;;;;;;;;;;12.40;99.90;;;;;;6106929;23;19921;-72
2023/06/08 05:05:49;;;;;;;;;;;12.50;99.90;;;;;;6127983;23;20341;-77
2023/06/08 05:08:15;;;;;;;;;;;12.50;99.90;;;;;;6101951;23;19925;-77
2023/06/08 05:10:43;;;;;;;;;;;12.50;99.90;;;;;;6103104;23;19928;-74
2023/06/08 05:13:09;;;;;;;;;;;12.60;99.90;;;;;;6128131;23;19928;-75
2023/06/08 05:15:35;;;;;;;;;;;12.60;99.90;;;;;;6101568;23;19929;-76
2023/06/08 05:18:00;;;;;;;;;;;12.70;99.90;;;;;;6102666;23;20257;-74
2023/06/08 05:20:26;;;;;;;;;;;12.70;99.90;;;;;;6128778;23;19928;-76
2023/06/08 05:22:52;;;;;;;;;;;12.80;99.90;;;;;;6127982;23;19920;-78
2023/06/08 05:25:18;;;;;;;;;;;12.80;99.90;;;;;;6102993;23;19921;-73
2023/06/08 05:27:48;;;;;;;;;;;12.80;99.90;;;;;;6118522;23;19921;-74
2023/06/08 05:30:14;;;;;;;;;;;12.90;99.90;;;;;;6127433;23;20003;-76
2023/06/08 05:32:39;;;;;;;;;;;13.00;99.90;;;;;;6156184;23;19948;-77
2023/06/08 05:38:28;;;;;;;;;;;13.20;99.90;;;;;;6113537;23;20342;-79
2023/06/08 05:41:17;;;;;;;;;;;13.20;99.90;;;;;;6153938;23;19944;-79
2023/06/08 05:47:34;;;;;;;;;;;12.40;99.90;;;;;;6144091;23;19916;-79
2023/06/08 05:50:06;;;;;;;;;;;13.80;99.90;;;;;;6154021;23;19992;-79
2023/06/08 05:52:39;;;;;;;;;;;13.70;99.90;;;;;;6152063;23;19923;-75
2023/06/08 06:13:43;;;;;;;;;;;14.40;99.90;;;;;;6153945;23;19921;-76
2023/06/08 06:16:09;;;;;;;;;;;14.30;99.90;;;;;;6154156;23;19980;-76
2023/06/08 06:18:35;;;;;;;;;;;13.20;99.90;;;;;;6153379;23;19984;-75
2023/06/08 06:21:01;;;;;;;;;;;14.50;99.90;;;;;;6154483;23;20235;-76
2023/06/08 06:23:26;;;;;;;;;;;14.50;99.90;;;;;;6156427;23;19917;-75
2023/06/08 06:25:52;;;;;;;;;;;14.50;99.90;;;;;;6155660;23;19924;-76
2023/06/08 06:28:17;;;;;;;;;;;14.70;99.90;;;;;;6156475;23;19920;-76
2023/06/08 06:30:43;;;;;;;;;;;14.70;99.90;;;;;;6155306;23;20349;-76
2023/06/08 06:33:08;;;;;;;;;;;14.90;99.90;;;;;;6155712;23;20302;-76
2023/06/08 06:35:37;;;;;;;;;;;15.00;99.90;;;;;;6155075;23;20270;-76
2023/06/08 06:38:03;;;;;;;;;;;15.10;99.90;;;;;;6154405;23;19921;-76
2023/06/08 06:40:28;;;;;;;;;;;15.20;99.90;;;;;;6155946;23;19927;-76
2023/06/08 06:42:56;;;;;;;;;;;15.30;99.90;;;;;;6154127;23;20369;-76
2023/06/08 06:45:21;;;;;;;;;;;15.40;99.90;;;;;;6156709;23;19931;-76
2023/06/08 06:47:47;;;;;;;;;;;15.40;99.90;;;;;;6155249;23;20349;-76
2023/06/08 06:50:12;;;;;;;;;;;15.50;99.90;;;;;;6156176;23;19956;-75
2023/06/08 06:52:38;;;;;;;;;;;15.60;99.90;;;;;;6153704;23;19932;-76
2023/06/08 06:55:07;;;;;;;;;;;15.70;99.90;;;;;;6133782;23;20361;-75
2023/06/08 06:57:32;;;;;;;;;;;15.60;99.90;;;;;;6156599;23;19924;-75
2023/06/08 06:59:58;;;;;;;;;;;15.60;99.90;;;;;;6130039;23;19921;-74
2023/06/08 07:02:25;;;;;;;;;;;15.60;99.90;;;;;;6127462;23;20348;-75
2023/06/08 07:04:52;;;;;;;;;;;15.70;99.90;;;;;;6129635;23;19955;-75
2023/06/08 07:07:18;;;;;;;;;;;15.70;99.90;;;;;;6156337;23;20353;-75
2023/06/08 07:09:44;;;;;;;;;;;15.70;99.90;;;;;;6129086;23;19921;-74
2023/06/08 07:12:11;;;;;;;;;;;15.80;99.90;;;;;;6129618;23;20235;-75
2023/06/08 07:14:36;;;;;;;;;;;15.80;99.90;;;;;;6129764;23;19921;-75
2023/06/08 07:17:02;;;;;;;;;;;15.90;99.90;;;;;;6128685;23;20359;-75
2023/06/08 07:19:27;;;;;;;;;;;16.10;99.90;;;;;;6128953;23;19959;-75
2023/06/08 07:21:54;;;;;;;;;;;16.50;99.90;;;;;;6129066;23;19936;-75
2023/06/08 07:24:22;;;;;;;;;;;17.00;99.90;;;;;;6130136;23;19921;-75
2023/06/08 07:26:48;;;;;;;;;;;17.50;99.90;;;;;;6155778;23;20334;-76
2023/06/08 07:29:13;;;;;;;;;;;18.00;99.90;;;;;;6155117;23;19988;-75
2023/06/08 07:31:40;;;;;;;;;;;18.50;99.90;;;;;;6155000;23;19940;-75
2023/06/08 07:34:10;;;;;;;;;;;19.00;99.90;;;;;;6154885;23;20352;-75
2023/06/08 07:36:36;;;;;;;;;;;19.40;99.90;;;;;;6128806;23;19995;-75
2023/06/08 07:39:05;;;;;;;;;;;19.80;99.90;;;;;;6155751;23;19970;-76
2023/06/08 07:41:31;;;;;;;;;;;20.10;99.90;;;;;;6156325;23;19924;-75
2023/06/08 07:43:58;;;;;;;;;;;20.40;99.90;;;;;;6128751;23;20301;-75
2023/06/08 07:46:24;;;;;;;;;;;20.60;99.90;;;;;;6156169;23;19995;-75
2023/06/08 07:48:49;;;;;;;;;;;20.90;99.60;;;;;;6155605;23;20351;-75
2023/06/08 07:51:15;;;;;;;;;;;21.20;99.10;;;;;;6155121;23;19928;-75
2023/06/08 07:53:43;;;;;;;;;;;21.50;98.40;;;;;;6155157;23;19921;-75
2023/06/08 07:56:10;;;;;;;;;;;21.50;98.00;;;;;;6155390;23;19928;-75
2023/06/08 07:58:35;;;;;;;;;;;21.80;97.60;;;;;;6128460;23;19921;-75
2023/06/08 08:01:01;;;;;;;;;;;22.10;97.60;;;;;;6129146;23;20249;-75
2023/06/08 08:03:27;;;;;;;;;;;22.30;97.10;;;;;;6156220;23;20346;-75
2023/06/08 08:05:52;;;;;;;;;;;22.30;96.50;;;;;;6156312;23;19988;-74
2023/06/08 08:08:18;;;;;;;;;;;22.50;96.20;;;;;;6160602;23;20378;-74
2023/06/08 08:10:43;;;;;;;;;;;22.40;96.40;;;;;;6135956;23;19928;-75
2023/06/08 08:13:11;;;;;;;;;;;22.70;95.90;;;;;;6134477;23;19920;-75
2023/06/08 08:15:41;;;;;;;;;;;22.90;96.20;;;;;;6157827;23;19921;-75
2023/06/08 08:18:07;;;;;;;;;;;23.10;95.80;;;;;;6128420;23;19920;-75
2023/06/08 08:20:32;;;;;;;;;;;23.10;95.80;;;;;;6155998;23;20317;-75
2023/06/08 08:22:58;;;;;;;;;;;23.10;95.00;;;;;;6155515;23;19928;-75
2023/06/08 08:25:23;;;;;;;;;;;23.30;95.30;;;;;;6128713;23;20352;-75
2023/06/08 08:27:53;;;;;;;;;;;23.20;94.70;;;;;;6129091;23;19992;-75
2023/06/08 08:30:18;;;;;;;;;;;23.30;94.70;;;;;;6129718;23;20249;-75
2023/06/08 08:32:44;;;;;;;;;;;23.40;94.90;;;;;;6128859;23;19921;-75
2023/06/08 08:35:10;;;;;;;;;;;23.70;94.70;;;;;;6128866;23;19921;-75
2023/06/08 08:37:36;;;;;;;;;;;23.70;93.90;;;;;;6129312;23;20253;-75
2023/06/08 08:40:02;;;;;;;;;;;23.70;94.70;;;;;;6154058;23;19941;-75
2023/06/08 08:42:30;;;;;;;;;;;24.10;94.70;;;;;;6155634;23;19947;-75
2023/06/08 08:44:56;;;;;;;;;;;24.30;93.90;;;;;;6129101;23;19916;-75
2023/06/08 08:47:23;;;;;;;;;;;24.50;93.80;;;;;;6153582;23;19921;-75
2023/06/08 08:50:09;;;;;;;;;;;24.50;93.70;;;;;;6129094;23;19924;-75
2023/06/08 08:52:37;;;;;;;;;;;24.40;93.30;;;;;;6129529;23;19920;-75
2023/06/08 08:55:04;;;;;;;;;;;24.40;93.30;;;;;;6153616;23;20384;-75
2023/06/08 08:57:31;;;;;;;;;;;24.30;93.30;;;;;;6155508;23;19921;-75
2023/06/08 08:59:57;;;;;;;;;;;24.40;93.10;;;;;;6129020;23;19928;-75
2023/06/08 09:02:26;;;;;;;;;;;24.20;92.80;;;;;;6128421;23;19924;-76
2023/06/08 09:04:53;;;;;;;;;;;24.30;92.40;;;;;;6128678;23;19927;-75
2023/06/08 09:07:19;;;;;;;;;;;24.30;92.90;;;;;;6154979;23;20264;-75
2023/06/08 09:10:03;;;;;;;;;;;24.10;92.80;;;;;;6129342;23;19920;-76
2023/06/08 09:12:39;;;;;;;;;;;23.90;92.70;;;;;;6129369;23;20004;-76
2023/06/08 09:15:05;;;;;;;;;;;23.90;93.40;;;;;;6154299;23;20021;-75
2023/06/08 09:17:37;;;;;;;;;;;24.00;93.40;;;;;;6131259;23;19925;-75
2023/06/08 09:20:03;;;;;;;;;;;24.30;93.00;;;;;;6130725;23;19979;-75
2023/06/08 09:22:29;;;;;;;;;;;24.50;93.10;;;;;;6130429;23;19992;-75
2023/06/08 09:24:55;;;;;;;;;;;24.60;92.70;;;;;;6157294;23;19952;-75
2023/06/08 09:27:25;;;;;;;;;;;24.40;92.20;;;;;;6130804;23;20019;-75
2023/06/08 09:30:11;;;;;;;;;;;24.50;92.40;;;;;;6156203;23;20043;-76
2023/06/08 09:32:37;;;;;;;;;;;24.40;92.40;;;;;;6110707;23;19927;-76
2023/06/08 09:35:03;;;;;;;;;;;24.50;92.40;;;;;;6157022;23;19920;-75
2023/06/08 09:37:32;;;;;;;;;;;24.60;92.60;;;;;;6156478;23;19928;-76
2023/06/08 09:39:58;;;;;;;;;;;24.40;92.50;;;;;;6156616;23;19921;-76
2023/06/08 09:42:40;;;;;;;;;;;24.40;92.60;;;;;;6130295;23;19928;-76
2023/06/08 09:45:12;;;;;;;;;;;24.50;92.70;;;;;;6155228;23;19921;-75
2023/06/08 09:47:38;;;;;;;;;;;24.60;92.10;;;;;;6157251;23;20288;-75
2023/06/08 09:50:05;;;;;;;;;;;24.60;92.10;;;;;;6156014;23;20337;-76
2023/06/08 09:52:32;;;;;;;;;;;24.60;92.30;;;;;;6156935;23;19928;-76
2023/06/08 09:54:58;;;;;;;;;;;24.50;92.20;;;;;;6156357;23;19925;-75
2023/06/08 09:57:27;;;;;;;;;;;24.50;92.70;;;;;;6156071;23;20340;-75
2023/06/08 10:00:18;;;;;;;;;;;24.50;92.40;;;;;;6156624;23;20345;-75
2023/06/08 10:03:02;;;;;;;;;;;24.50;93.10;;;;;;6157112;23;19952;-75
2023/06/08 10:05:29;;;;;;;;;;;24.80;92.60;;;;;;6155821;23;20363;-75
2023/06/08 10:07:59;;;;;;;;;;;24.50;92.30;;;;;;6156614;23;19920;-75
2023/06/08 10:10:36;;;;;;;;;;;24.60;93.20;;;;;;6129574;23;19921;-75
2023/06/08 10:13:01;;;;;;;;;;;24.60;93.20;;;;;;6129743;23;19985;-75
2023/06/08 10:15:27;;;;;;;;;;;24.60;92.10;;;;;;6130503;23;19978;-75
2023/06/08 10:17:57;;;;;;;;;;;24.60;92.60;;;;;;6129335;23;20007;-75
2023/06/08 10:20:23;;;;;;;;;;;24.60;91.60;;;;;;6130345;23;19928;-75
2023/06/08 10:22:49;;;;;;;;;;;24.50;92.40;;;;;;6129870;23;19927;-75
2023/06/08 10:25:16;;;;;;;;;;;24.50;92.60;;;;;;6155418;23;20226;-75
2023/06/08 10:27:51;;;;;;;;;;;24.60;92.20;;;;;;6130003;23;20017;-75
2023/06/08 10:30:27;;;;;;;;;;;24.70;92.60;;;;;;6130573;23;19921;-75
2023/06/08 10:32:56;;;;;;;;;;;24.50;92.60;;;;;;6155250;23;19925;-75
2023/06/08 10:35:21;;;;;;;;;;;24.50;92.00;;;;;;6156846;23;19936;-76
2023/06/08 10:37:48;;;;;;;;;;;24.60;92.40;;;;;;6156399;23;19921;-75
2023/06/08 10:40:13;;;;;;;;;;;24.50;91.90;;;;;;6129155;23;20337;-75
2023/06/08 10:42:55;;;;;;;;;;;24.40;92.60;;;;;;6156611;23;19921;-75
2023/06/08 10:45:30;;;;;;;;;;;24.50;91.70;;;;;;6130537;23;19917;-75
2023/06/08 10:48:20;;;;;;;;;;;24.40;93.10;;;;;;6129032;23;19928;-75
2023/06/08 10:50:47;;;;;;;;;;;24.20;92.40;;;;;;6130272;23;19920;-75
2023/06/08 10:53:20;;;;;;;;;;;24.50;92.50;;;;;;6154964;23;19987;-75
2023/06/08 10:55:47;;;;;;;;;;;24.60;92.30;;;;;;6130136;23;19921;-75
2023/06/08 10:58:16;;;;;;;;;;;24.60;92.40;;;;;;6129940;23;19921;-74
2023/06/08 11:00:42;;;;;;;;;;;24.50;91.90;;;;;;6129183;23;19995;-75
2023/06/08 11:03:09;;;;;;;;;;;24.40;92.40;;;;;;6155740;23;19932;-75
2023/06/08 11:05:36;;;;;;;;;;;24.50;92.60;;;;;;6156684;23;19924;-75
2023/06/08 11:08:02;;;;;;;;;;;24.40;92.40;;;;;;6119417;23;19924;-74
2023/06/08 11:16:47;;;;;;;;;;;24.50;92.00;;;;;;6158496;23;19988;-73
2023/06/08 11:19:16;;;;;;;;;;;23.70;92.30;;;;;;6156066;23;19920;-74
2023/06/08 11:21:41;;;;;;;;;;;24.50;92.50;;;;;;6128316;23;20230;-74
2023/06/08 11:24:07;;;;;;;;;;;24.50;93.10;;;;;;6128740;23;20389;-74
2023/06/08 11:26:36;;;;;;;;;;;24.20;92.60;;;;;;6130780;23;19921;-75
2023/06/08 11:29:01;;;;;;;;;;;24.20;93.10;;;;;;6128766;23;19925;-74
2023/06/08 11:31:31;;;;;;;;;;;24.20;92.90;;;;;;6155687;23;20008;-75
2023/06/08 11:33:57;;;;;;;;;;;24.20;92.90;;;;;;6129165;23;19920;-76
2023/06/08 11:36:22;;;;;;;;;;;24.20;93.10;;;;;;6154559;23;19943;-75
2023/06/08 11:38:48;;;;;;;;;;;24.20;92.60;;;;;;6129033;23;20026;-76
2023/06/08 11:47:30;;;;;;;;;;;23.50;92.40;;;;;;6153784;23;19921;-75
2023/06/08 11:49:59;;;;;;;;;;;23.90;92.90;;;;;;6130177;23;19955;-73
2023/06/08 11:52:30;;;;;;;;;;;23.60;92.50;;;;;;6159523;23;20393;-74
2023/06/08 11:54:56;;;;;;;;;;;23.70;93.30;;;;;;6168833;23;19991;-73
2023/06/08 11:57:36;;;;;;;;;;;23.70;92.70;;;;;;6139194;23;19921;-75
2023/06/08 12:16:26;;;;;;;;;;;23.80;93.10;;;;;;6184583;23;19978;-72
2023/06/08 12:19:06;;;;;;;;;;;23.70;93.60;;;;;;6157078;23;20003;-74
2023/06/08 12:21:38;;;;;;;;;;;23.10;93.10;;;;;;6158018;23;19920;-73
2023/06/08 12:24:05;;;;;;;;;;;23.60;94.10;;;;;;6154319;23;19925;-72
2023/06/08 12:26:30;;;;;;;;;;;23.60;93.70;;;;;;6156692;23;20256;-73
2023/06/08 12:29:04;;;;;;;;;;;23.60;94.30;;;;;;6157055;23;19986;-73
2023/06/08 12:31:33;;;;;;;;;;;23.80;93.30;;;;;;6183565;23;19924;-73
2023/06/08 12:34:02;;;;;;;;;;;23.50;93.60;;;;;;6157176;23;19916;-73
2023/06/08 12:36:28;;;;;;;;;;;23.80;93.90;;;;;;6183407;23;19921;-74
2023/06/08 12:38:57;;;;;;;;;;;23.90;93.60;;;;;;6182741;23;19920;-73
2023/06/08 12:41:23;;;;;;;;;;;23.70;93.10;;;;;;6157326;23;19924;-72
2023/06/08 12:43:49;;;;;;;;;;;23.70;93.50;;;;;;6157151;23;19987;-73
2023/06/08 12:46:18;;;;;;;;;;;23.40;93.50;;;;;;6183416;23;19975;-71
2023/06/08 12:48:44;;;;;;;;;;;23.40;94.20;;;;;;6157316;23;19921;-72
2023/06/08 12:51:10;;;;;;;;;;;23.60;95.20;;;;;;6158396;23;20333;-73
2023/06/08 12:53:35;;;;;;;;;;;23.60;94.00;;;;;;6158750;23;19932;-74
2023/06/08 12:56:01;;;;;;;;;;;23.70;93.30;;;;;;6185789;23;19924;-74
2023/06/08 12:58:27;;;;;;;;;;;23.60;93.80;;;;;;6159188;23;19920;-74
2023/06/08 13:00:52;;;;;;;;;;;23.50;93.90;;;;;;6184847;23;19943;-72
2023/06/08 13:03:18;;;;;;;;;;;23.50;94.60;;;;;;6159170;23;20323;-73
2023/06/08 13:05:43;;;;;;;;;;;23.60;94.00;;;;;;6185547;23;19967;-74
2023/06/08 13:08:09;;;;;;;;;;;23.50;94.40;;;;;;6184071;23;19983;-75
2023/06/08 13:10:35;;;;;;;;;;;23.30;93.50;;;;;;6159137;23;19986;-75
2023/06/08 13:13:02;;;;;;;;;;;23.40;94.40;;;;;;6158589;23;19994;-74
2023/06/08 13:15:28;;;;;;;;;;;23.60;94.50;;;;;;6184587;23;19920;-76
2023/06/08 13:17:54;;;;;;;;;;;23.40;94.10;;;;;;6184660;23;20346;-74
2023/06/08 13:20:26;;;;;;;;;;;23.30;93.90;;;;;;6158768;23;20329;-73
2023/06/08 13:22:51;;;;;;;;;;;23.30;94.60;;;;;;6156233;23;19920;-71
2023/06/08 13:25:20;;;;;;;;;;;23.20;94.30;;;;;;6153514;23;20252;-75
2023/06/08 13:27:46;;;;;;;;;;;23.20;95.00;;;;;;6158032;23;19971;-75
2023/06/08 13:30:12;;;;;;;;;;;23.20;94.90;;;;;;6158483;23;19950;-76
2023/06/08 13:32:37;;;;;;;;;;;23.20;94.60;;;;;;6157753;23;19924;-71
2023/06/08 13:35:03;;;;;;;;;;;23.20;94.40;;;;;;6156370;23;19956;-73
2023/06/08 13:37:28;;;;;;;;;;;22.80;94.80;;;;;;6184915;23;19917;-73
2023/06/08 13:39:54;;;;;;;;;;;22.90;95.20;;;;;;6184211;23;20010;-72
2023/06/08 13:42:20;;;;;;;;;;;22.80;95.30;;;;;;6183448;23;19995;-74
2023/06/08 13:44:47;;;;;;;;;;;22.80;94.90;;;;;;6158250;23;19924;-74
2023/06/08 13:47:13;;;;;;;;;;;22.70;94.70;;;;;;6158707;23;20260;-73
2023/06/08 13:49:40;;;;;;;;;;;22.80;95.20;;;;;;6157762;23;19952;-74
2023/06/08 13:52:06;;;;;;;;;;;22.70;95.10;;;;;;6183644;23;19928;-74
2023/06/08 13:54:31;;;;;;;;;;;22.70;95.10;;;;;;6156287;23;19920;-76
2023/06/08 13:56:57;;;;;;;;;;;22.70;95.10;;;;;;6157620;23;19920;-75
2023/06/08 13:59:22;;;;;;;;;;;22.60;95.30;;;;;;6158330;23;20348;-76
2023/06/08 14:01:48;;;;;;;;;;;22.50;94.90;;;;;;6184433;23;19927;-77
2023/06/08 14:04:13;;;;;;;;;;;22.60;95.30;;;;;;6184157;23;19917;-75
2023/06/08 14:06:39;;;;;;;;;;;22.60;95.00;;;;;;6131401;23;20334;-77
2023/06/08 14:09:05;;;;;;;;;;;22.40;94.80;;;;;;6147970;23;19928;-77
2023/06/08 14:11:31;;;;;;;;;;;22.20;95.40;;;;;;6124739;23;19968;-76
2023/06/08 14:13:57;;;;;;;;;;;22.20;95.50;;;;;;6125965;23;19921;-75
2023/06/08 14:16:26;;;;;;;;;;;22.10;95.30;;;;;;6123666;23;19921;-76
2023/06/08 14:18:52;;;;;;;;;;;21.90;95.40;;;;;;6123770;23;20018;-73
2023/06/08 14:21:18;;;;;;;;;;;21.80;95.60;;;;;;6124649;23;19921;-74
2023/06/08 14:23:43;;;;;;;;;;;21.90;96.10;;;;;;6125404;23;20368;-77
2023/06/08 14:26:09;;;;;;;;;;;22.10;95.80;;;;;;6124170;23;19999;-73
2023/06/08 14:28:35;;;;;;;;;;;22.20;95.90;;;;;;6123457;23;19927;-77
2023/06/08 14:31:01;;;;;;;;;;;22.20;95.40;;;;;;6122091;23;19932;-79
2023/06/08 14:33:26;;;;;;;;;;;22.20;95.10;;;;;;6123646;23;19921;-80
2023/06/08 14:35:52;;;;;;;;;;;22.20;95.70;;;;;;6123256;23;19920;-81
2023/06/08 14:38:18;;;;;;;;;;;22.10;95.50;;;;;;6124298;23;19948;-77
2023/06/08 14:40:43;;;;;;;;;;;21.80;96.10;;;;;;6120020;23;20022;-75
2023/06/08 14:43:09;;;;;;;;;;;21.90;95.80;;;;;;6122983;23;19960;-75
2023/06/08 14:45:34;;;;;;;;;;;21.80;95.70;;;;;;6122280;23;19921;-74
2023/06/08 14:48:00;;;;;;;;;;;22.00;95.70;;;;;;6121844;23;19952;-75
2023/06/08 14:50:28;;;;;;;;;;;21.80;95.50;;;;;;6120247;23;19925;-72
2023/06/08 14:52:54;;;;;;;;;;;21.80;95.90;;;;;;6123330;23;20334;-72
2023/06/08 14:55:19;;;;;;;;;;;21.60;95.80;;;;;;6120368;23;20077;-71
2023/06/08 14:57:45;;;;;;;;;;;21.60;96.20;;;;;;6125496;23;20354;-73
2023/06/08 15:00:12;;;;;;;;;;;21.60;96.20;;;;;;6124780;23;19925;-74
2023/06/08 15:02:38;;;;;;;;;;;21.70;96.00;;;;;;6123518;23;19975;-73
2023/06/08 15:05:03;;;;;;;;;;;21.60;95.70;;;;;;6125068;23;20257;-74
2023/06/08 15:07:29;;;;;;;;;;;21.80;96.10;;;;;;6127543;23;19924;-74
2023/06/08 15:09:55;;;;;;;;;;;21.80;95.80;;;;;;6126734;23;19921;-77
2023/06/08 15:12:20;;;;;;;;;;;21.60;95.40;;;;;;6153305;23;19920;-76